sensor_id;sensor_type;location;lat;lon;timestamp;pressure;altitude;pressure_sealevel;temperature;humidity
10658;BME280;5377;43.276;26.930;2023-02-20T00:00:41;98904.09;;;12.38;70.75
10658;BME280;5377;43.276;26.930;2023-02-20T00:03:08;98913.81;;;12.39;71.06
10658;BME280;5377;43.276;26.930;2023-02-20T00:05:35;98914.03;;;12.38;71.24
10658;BME280;5377;43.276;26.930;2023-02-20T00:08:02;98926.91;;;12.29;71.93
10658;BME280;5377;43.276;26.930;2023-02-20T00:10:29;98918.03;;;12.29;71.58
10658;BME280;5377;43.276;26.930;2023-02-20T00:12:56;98927.78;;;12.23;72.30
10658;BME280;5377;43.276;26.930;2023-02-20T00:15:23;98927.19;;;12.21;72.28
10658;BME280;5377;43.276;26.930;2023-02-20T00:17:51;98915.47;;;12.15;72.69
10658;BME280;5377;43.276;26.930;2023-02-20T00:20:20;98911.75;;;12.16;72.83
10658;BME280;5377;43.276;26.930;2023-02-20T00:22:47;98905.56;;;12.16;72.76
10658;BME280;5377;43.276;26.930;2023-02-20T00:25:15;98896.47;;;12.10;73.18
10658;BME280;5377;43.276;26.930;2023-02-20T00:27:42;98897.72;;;12.14;72.76
10658;BME280;5377;43.276;26.930;2023-02-20T00:30:12;98902.06;;;12.09;72.84
10658;BME280;5377;43.276;26.930;2023-02-20T00:32:40;98901.03;;;12.10;72.94
10658;BME280;5377;43.276;26.930;2023-02-20T00:35:09;98898.19;;;12.05;73.17
10658;BME280;5377;43.276;26.930;2023-02-20T00:37:37;98892.66;;;12.00;73.47
10658;BME280;5377;43.276;26.930;2023-02-20T00:40:06;98882.56;;;11.95;74.05
10658;BME280;5377;43.276;26.930;2023-02-20T00:42:33;98880.47;;;11.97;74.20
10658;BME280;5377;43.276;26.930;2023-02-20T00:45:00;98894.72;;;11.98;74.19
10658;BME280;5377;43.276;26.930;2023-02-20T00:47:27;98890.06;;;11.86;74.11
10658;BME280;5377;43.276;26.930;2023-02-20T00:49:54;98884.25;;;11.90;74.92
10658;BME280;5377;43.276;26.930;2023-02-20T00:52:22;98895.44;;;11.86;74.90
10658;BME280;5377;43.276;26.930;2023-02-20T00:54:49;98886.19;;;11.82;75.56
10658;BME280;5377;43.276;26.930;2023-02-20T00:57:15;98906.59;;;11.77;76.15
10658;BME280;5377;43.276;26.930;2023-02-20T00:59:42;98895.03;;;11.76;76.23
10658;BME280;5377;43.276;26.930;2023-02-20T01:02:09;98901.88;;;11.72;76.46
10658;BME280;5377;43.276;26.930;2023-02-20T01:04:36;98903.34;;;11.68;76.66
10658;BME280;5377;43.276;26.930;2023-02-20T01:07:03;98900.69;;;11.62;77.15
10658;BME280;5377;43.276;26.930;2023-02-20T01:09:31;98896.81;;;11.57;77.96
10658;BME280;5377;43.276;26.930;2023-02-20T01:11:58;98849.50;;;11.32;78.18
10658;BME280;5377;43.276;26.930;2023-02-20T01:14:25;98910.88;;;11.53;78.63
10658;BME280;5377;43.276;26.930;2023-02-20T01:16:52;98909.66;;;11.49;79.16
10658;BME280;5377;43.276;26.930;2023-02-20T01:19:21;98891.91;;;11.48;79.34
10658;BME280;5377;43.276;26.930;2023-02-20T01:21:48;98877.31;;;11.37;80.25
10658;BME280;5377;43.276;26.930;2023-02-20T01:24:16;98882.28;;;11.34;80.28
10658;BME280;5377;43.276;26.930;2023-02-20T01:26:46;98899.56;;;11.38;80.72
10658;BME280;5377;43.276;26.930;2023-02-20T01:29:14;98871.19;;;11.23;81.36
10658;BME280;5377;43.276;26.930;2023-02-20T01:31:46;98885.38;;;11.31;81.82
10658;BME280;5377;43.276;26.930;2023-02-20T01:34:13;98893.03;;;11.27;82.09
10658;BME280;5377;43.276;26.930;2023-02-20T01:36:44;98868.94;;;11.20;82.51
10658;BME280;5377;43.276;26.930;2023-02-20T01:39:11;98871.66;;;11.14;82.85
10658;BME280;5377;43.276;26.930;2023-02-20T01:41:38;98865.69;;;11.12;82.92
10658;BME280;5377;43.276;26.930;2023-02-20T01:44:15;98880.13;;;11.11;83.35
10658;BME280;5377;43.276;26.930;2023-02-20T01:46:49;98854.53;;;11.08;83.37
10658;BME280;5377;43.276;26.930;2023-02-20T01:49:21;98887.72;;;11.07;83.91
10658;BME280;5377;43.276;26.930;2023-02-20T01:51:52;98892.47;;;11.05;84.05
10658;BME280;5377;43.276;26.930;2023-02-20T01:54:23;98894.56;;;11.03;84.23
10658;BME280;5377;43.276;26.930;2023-02-20T01:56:53;98892.91;;;11.02;84.71
10658;BME280;5377;43.276;26.930;2023-02-20T01:59:24;98890.44;;;11.01;84.81
10658;BME280;5377;43.276;26.930;2023-02-20T02:01:53;98886.94;;;11.00;84.67
10658;BME280;5377;43.276;26.930;2023-02-20T02:04:21;98893.56;;;10.91;85.17
10658;BME280;5377;43.276;26.930;2023-02-20T02:06:48;98892.06;;;11.08;84.49
10658;BME280;5377;43.276;26.930;2023-02-20T02:09:23;98893.69;;;11.09;83.98
10658;BME280;5377;43.276;26.930;2023-02-20T02:11:53;98903.03;;;11.00;84.00
10658;BME280;5377;43.276;26.930;2023-02-20T02:14:20;98899.31;;;11.01;84.15
10658;BME280;5377;43.276;26.930;2023-02-20T02:16:56;98912.50;;;10.96;84.50
10658;BME280;5377;43.276;26.930;2023-02-20T02:22:42;98934.38;;;10.93;84.25
10658;BME280;5377;43.276;26.930;2023-02-20T02:25:25;98941.38;;;10.94;84.09
10658;BME280;5377;43.276;26.930;2023-02-20T02:28:24;98947.78;;;10.93;83.88
10658;BME280;5377;43.276;26.930;2023-02-20T02:37:00;98978.50;;;10.84;84.81
10658;BME280;5377;43.276;26.930;2023-02-20T02:39:35;98977.47;;;10.78;84.59
10658;BME280;5377;43.276;26.930;2023-02-20T02:42:14;98980.16;;;10.85;84.94
10658;BME280;5377;43.276;26.930;2023-02-20T02:44:47;98989.44;;;10.76;85.27
10658;BME280;5377;43.276;26.930;2023-02-20T02:47:21;98983.25;;;10.69;86.16
10658;BME280;5377;43.276;26.930;2023-02-20T02:49:54;98986.75;;;10.76;85.39
10658;BME280;5377;43.276;26.930;2023-02-20T02:52:25;98999.50;;;10.74;85.79
10658;BME280;5377;43.276;26.930;2023-02-20T02:55:11;99009.00;;;10.76;85.45
10658;BME280;5377;43.276;26.930;2023-02-20T02:57:38;99009.19;;;10.75;85.73
10658;BME280;5377;43.276;26.930;2023-02-20T03:00:08;99015.59;;;10.74;86.04
10658;BME280;5377;43.276;26.930;2023-02-20T03:02:41;99014.75;;;10.73;86.21
10658;BME280;5377;43.276;26.930;2023-02-20T03:05:11;99014.97;;;10.65;86.46
10658;BME280;5377;43.276;26.930;2023-02-20T03:07:44;99021.97;;;10.66;86.78
10658;BME280;5377;43.276;26.930;2023-02-20T03:10:15;99022.38;;;10.63;87.39
10658;BME280;5377;43.276;26.930;2023-02-20T03:12:47;99024.44;;;10.61;87.27
10658;BME280;5377;43.276;26.930;2023-02-20T03:15:20;99031.88;;;10.59;87.78
10658;BME280;5377;43.276;26.930;2023-02-20T03:18:04;99033.50;;;10.60;87.78
10658;BME280;5377;43.276;26.930;2023-02-20T03:20:37;99028.16;;;10.53;88.26
10658;BME280;5377;43.276;26.930;2023-02-20T03:23:08;99030.22;;;10.51;88.56
10658;BME280;5377;43.276;26.930;2023-02-20T03:25:40;99036.56;;;10.37;89.40
10658;BME280;5377;43.276;26.930;2023-02-20T03:28:10;99045.03;;;10.47;89.46
10658;BME280;5377;43.276;26.930;2023-02-20T03:30:42;99051.41;;;10.40;90.22
10658;BME280;5377;43.276;26.930;2023-02-20T03:33:13;99045.88;;;10.41;90.38
10658;BME280;5377;43.276;26.930;2023-02-20T03:35:59;99072.19;;;10.38;90.75
10658;BME280;5377;43.276;26.930;2023-02-20T03:38:49;99068.88;;;10.29;91.38
10658;BME280;5377;43.276;26.930;2023-02-20T03:41:35;99070.72;;;10.22;92.47
10658;BME280;5377;43.276;26.930;2023-02-20T03:44:23;99072.72;;;10.13;93.60
10658;BME280;5377;43.276;26.930;2023-02-20T03:46:53;99077.03;;;10.08;94.33
10658;BME280;5377;43.276;26.930;2023-02-20T03:49:26;99076.22;;;10.07;94.94
10658;BME280;5377;43.276;26.930;2023-02-20T03:51:53;99072.88;;;10.05;95.50
10658;BME280;5377;43.276;26.930;2023-02-20T03:54:22;99073.28;;;9.95;95.99
10658;BME280;5377;43.276;26.930;2023-02-20T03:56:52;99072.25;;;9.96;96.08
10658;BME280;5377;43.276;26.930;2023-02-20T03:59:24;99067.88;;;9.82;96.49
10658;BME280;5377;43.276;26.930;2023-02-20T04:01:56;99068.50;;;9.84;96.46
10658;BME280;5377;43.276;26.930;2023-02-20T04:04:28;99063.75;;;9.80;96.87
10658;BME280;5377;43.276;26.930;2023-02-20T04:06:59;99060.25;;;9.79;97.00
10658;BME280;5377;43.276;26.930;2023-02-20T04:09:32;99058.41;;;9.80;96.75
10658;BME280;5377;43.276;26.930;2023-02-20T04:12:05;99062.94;;;9.79;96.75
10658;BME280;5377;43.276;26.930;2023-02-20T04:14:34;99065.75;;;9.71;96.21
10658;BME280;5377;43.276;26.930;2023-02-20T04:17:05;99078.97;;;9.79;95.88
10658;BME280;5377;43.276;26.930;2023-02-20T04:19:33;99085.75;;;9.75;96.21
10658;BME280;5377;43.276;26.930;2023-02-20T04:22:02;99100.16;;;9.74;96.26
10658;BME280;5377;43.276;26.930;2023-02-20T04:24:35;99102.19;;;9.72;96.89
10658;BME280;5377;43.276;26.930;2023-02-20T04:27:05;99088.81;;;9.72;97.01
10658;BME280;5377;43.276;26.930;2023-02-20T04:29:33;99098.25;;;9.68;97.34
10658;BME280;5377;43.276;26.930;2023-02-20T04:31:59;99090.22;;;9.68;97.24
10658;BME280;5377;43.276;26.930;2023-02-20T04:34:26;99111.63;;;9.68;97.46
10658;BME280;5377;43.276;26.930;2023-02-20T04:37:03;99105.81;;;9.58;97.81
10658;BME280;5377;43.276;26.930;2023-02-20T04:39:32;99112.84;;;9.65;97.71
10658;BME280;5377;43.276;26.930;2023-02-20T04:41:59;99114.41;;;9.53;98.10
10658;BME280;5377;43.276;26.930;2023-02-20T04:44:26;99118.28;;;9.44;98.85
10658;BME280;5377;43.276;26.930;2023-02-20T04:47:00;99129.03;;;9.57;98.59
10658;BME280;5377;43.276;26.930;2023-02-20T04:49:28;99125.34;;;9.58;98.90
10658;BME280;5377;43.276;26.930;2023-02-20T04:51:55;99138.91;;;9.57;98.81
10658;BME280;5377;43.276;26.930;2023-02-20T04:54:22;99136.88;;;9.59;98.86
10658;BME280;5377;43.276;26.930;2023-02-20T04:56:50;99099.31;;;9.39;98.88
10658;BME280;5377;43.276;26.930;2023-02-20T04:59:17;99150.44;;;9.57;99.19
10658;BME280;5377;43.276;26.930;2023-02-20T05:01:43;99149.44;;;9.65;99.30
10658;BME280;5377;43.276;26.930;2023-02-20T05:04:14;99158.25;;;9.59;99.27
10658;BME280;5377;43.276;26.930;2023-02-20T05:06:42;99156.59;;;9.58;99.38
10658;BME280;5377;43.276;26.930;2023-02-20T05:09:10;99170.59;;;9.60;99.58
10658;BME280;5377;43.276;26.930;2023-02-20T05:11:37;99179.03;;;9.57;100.00
10658;BME280;5377;43.276;26.930;2023-02-20T05:14:05;99183.34;;;9.58;100.00
10658;BME280;5377;43.276;26.930;2023-02-20T05:16:32;99190.16;;;9.60;100.00
10658;BME280;5377;43.276;26.930;2023-02-20T05:18:59;99196.91;;;9.56;100.00
10658;BME280;5377;43.276;26.930;2023-02-20T05:21:26;99204.31;;;9.54;100.00
10658;BME280;5377;43.276;26.930;2023-02-20T05:24:11;99212.91;;;9.50;100.00
10658;BME280;5377;43.276;26.930;2023-02-20T05:26:38;99215.38;;;9.51;100.00
10658;BME280;5377;43.276;26.930;2023-02-20T05:29:06;99229.97;;;9.49;100.00
10658;BME280;5377;43.276;26.930;2023-02-20T05:31:36;99241.25;;;9.44;100.00
10658;BME280;5377;43.276;26.930;2023-02-20T05:34:03;99253.41;;;9.25;100.00
10658;BME280;5377;43.276;26.930;2023-02-20T05:36:30;99253.56;;;8.66;90.00
10658;BME280;5377;43.276;26.930;2023-02-20T05:38:57;99259.63;;;8.39;86.09
10658;BME280;5377;43.276;26.930;2023-02-20T05:41:24;99182.00;;;7.52;86.89
10658;BME280;5377;43.276;26.930;2023-02-20T05:43:50;99281.53;;;7.82;83.75
10658;BME280;5377;43.276;26.930;2023-02-20T05:46:20;99295.56;;;7.38;83.56
10658;BME280;5377;43.276;26.930;2023-02-20T05:48:47;99323.31;;;7.21;84.11
10658;BME280;5377;43.276;26.930;2023-02-20T05:51:19;99301.88;;;7.14;85.22
10658;BME280;5377;43.276;26.930;2023-02-20T05:53:46;99320.75;;;7.05;86.44
10658;BME280;5377;43.276;26.930;2023-02-20T05:56:13;99320.84;;;6.88;87.78
10658;BME280;5377;43.276;26.930;2023-02-20T05:58:41;99336.31;;;6.85;87.91
10658;BME280;5377;43.276;26.930;2023-02-20T06:01:08;99341.03;;;6.75;87.96
10658;BME280;5377;43.276;26.930;2023-02-20T06:03:36;99339.78;;;6.54;88.65
10658;BME280;5377;43.276;26.930;2023-02-20T06:06:03;99364.72;;;6.53;90.30
10658;BME280;5377;43.276;26.930;2023-02-20T06:08:30;99364.94;;;6.44;90.35
10658;BME280;5377;43.276;26.930;2023-02-20T06:10:57;99360.44;;;6.44;91.27
10658;BME280;5377;43.276;26.930;2023-02-20T06:13:24;99393.16;;;6.53;91.07
10658;BME280;5377;43.276;26.930;2023-02-20T06:15:51;99408.63;;;6.57;90.62
10658;BME280;5377;43.276;26.930;2023-02-20T06:18:17;99424.44;;;6.51;91.68
10658;BME280;5377;43.276;26.930;2023-02-20T06:20:46;99424.78;;;6.48;91.89
10658;BME280;5377;43.276;26.930;2023-02-20T06:23:12;99440.91;;;6.54;92.46
10658;BME280;5377;43.276;26.930;2023-02-20T06:25:39;99398.19;;;6.23;92.27
10658;BME280;5377;43.276;26.930;2023-02-20T06:28:06;99450.38;;;6.65;92.02
10658;BME280;5377;43.276;26.930;2023-02-20T06:30:33;99440.72;;;6.56;93.55
10658;BME280;5377;43.276;26.930;2023-02-20T06:32:59;99447.22;;;6.62;93.01
10658;BME280;5377;43.276;26.930;2023-02-20T06:35:26;99454.56;;;6.60;92.47
10658;BME280;5377;43.276;26.930;2023-02-20T06:37:54;99445.75;;;6.43;93.27
10658;BME280;5377;43.276;26.930;2023-02-20T06:40:21;99458.06;;;6.36;95.11
10658;BME280;5377;43.276;26.930;2023-02-20T06:42:48;99470.03;;;6.32;96.15
10658;BME280;5377;43.276;26.930;2023-02-20T06:45:15;99475.66;;;6.53;97.31
10658;BME280;5377;43.276;26.930;2023-02-20T06:47:42;99485.63;;;6.51;95.69
10658;BME280;5377;43.276;26.930;2023-02-20T06:50:09;99486.31;;;6.53;94.92
10658;BME280;5377;43.276;26.930;2023-02-20T06:52:36;99502.94;;;6.47;93.23
10658;BME280;5377;43.276;26.930;2023-02-20T06:55:05;99477.31;;;6.54;94.10
10658;BME280;5377;43.276;26.930;2023-02-20T06:57:33;99477.66;;;6.51;93.81
10658;BME280;5377;43.276;26.930;2023-02-20T06:59:59;99480.97;;;6.53;97.86
10658;BME280;5377;43.276;26.930;2023-02-20T07:02:26;99495.78;;;6.64;96.50
10658;BME280;5377;43.276;26.930;2023-02-20T07:04:53;99501.94;;;6.56;93.84
10658;BME280;5377;43.276;26.930;2023-02-20T07:07:20;99511.09;;;6.53;94.96
10658;BME280;5377;43.276;26.930;2023-02-20T07:09:46;99507.94;;;6.50;94.36
10658;BME280;5377;43.276;26.930;2023-02-20T07:12:15;99522.88;;;6.59;93.46
10658;BME280;5377;43.276;26.930;2023-02-20T07:14:42;99516.41;;;6.37;92.67
10658;BME280;5377;43.276;26.930;2023-02-20T07:17:08;99519.09;;;6.29;92.13
10658;BME280;5377;43.276;26.930;2023-02-20T07:19:35;99519.41;;;6.26;93.29
10658;BME280;5377;43.276;26.930;2023-02-20T07:22:02;99527.06;;;6.29;93.99
10658;BME280;5377;43.276;26.930;2023-02-20T07:24:29;99517.25;;;6.30;94.07
10658;BME280;5377;43.276;26.930;2023-02-20T07:26:56;99522.06;;;6.26;94.11
10658;BME280;5377;43.276;26.930;2023-02-20T07:29:24;99533.88;;;6.32;94.50
10658;BME280;5377;43.276;26.930;2023-02-20T07:31:51;99542.69;;;6.40;93.40
10658;BME280;5377;43.276;26.930;2023-02-20T07:34:18;99560.31;;;6.41;93.29
10658;BME280;5377;43.276;26.930;2023-02-20T07:36:45;99568.13;;;6.43;91.32
10658;BME280;5377;43.276;26.930;2023-02-20T07:39:12;99565.97;;;6.30;91.70
10658;BME280;5377;43.276;26.930;2023-02-20T07:41:39;99565.31;;;6.36;92.16
10658;BME280;5377;43.276;26.930;2023-02-20T07:44:06;99572.63;;;6.42;90.79
10658;BME280;5377;43.276;26.930;2023-02-20T07:46:34;99567.47;;;6.33;89.78
10658;BME280;5377;43.276;26.930;2023-02-20T07:49:02;99585.09;;;6.42;89.93
10658;BME280;5377;43.276;26.930;2023-02-20T07:51:29;99571.28;;;6.38;89.49
10658;BME280;5377;43.276;26.930;2023-02-20T07:53:55;99563.47;;;6.29;90.36
10658;BME280;5377;43.276;26.930;2023-02-20T07:56:23;99574.13;;;6.29;90.06
10658;BME280;5377;43.276;26.930;2023-02-20T07:58:50;99577.09;;;6.25;89.29
10658;BME280;5377;43.276;26.930;2023-02-20T08:01:17;99569.63;;;6.29;89.85
10658;BME280;5377;43.276;26.930;2023-02-20T08:03:45;99573.13;;;6.30;89.96
10658;BME280;5377;43.276;26.930;2023-02-20T08:06:12;99584.25;;;6.33;89.95
10658;BME280;5377;43.276;26.930;2023-02-20T08:08:39;99585.25;;;6.32;90.33
10658;BME280;5377;43.276;26.930;2023-02-20T08:11:06;99582.09;;;6.37;90.20
10658;BME280;5377;43.276;26.930;2023-02-20T08:13:33;99597.41;;;6.51;89.31
10658;BME280;5377;43.276;26.930;2023-02-20T08:15:59;99593.09;;;6.66;88.89
10658;BME280;5377;43.276;26.930;2023-02-20T08:18:26;99579.28;;;6.71;87.74
10658;BME280;5377;43.276;26.930;2023-02-20T08:20:54;99578.25;;;6.88;86.86
10658;BME280;5377;43.276;26.930;2023-02-20T08:23:23;99576.09;;;6.92;85.96
10658;BME280;5377;43.276;26.930;2023-02-20T08:25:50;99592.41;;;7.05;85.86
10658;BME280;5377;43.276;26.930;2023-02-20T08:28:17;99582.19;;;7.25;86.98
10658;BME280;5377;43.276;26.930;2023-02-20T08:30:44;99582.38;;;7.31;84.46
10658;BME280;5377;43.276;26.930;2023-02-20T08:33:11;99581.06;;;7.19;82.67
10658;BME280;5377;43.276;26.930;2023-02-20T08:35:39;99578.22;;;7.29;83.23
10658;BME280;5377;43.276;26.930;2023-02-20T08:38:23;99573.44;;;7.55;83.61
10658;BME280;5377;43.276;26.930;2023-02-20T08:40:50;99575.28;;;7.55;81.79
10658;BME280;5377;43.276;26.930;2023-02-20T08:43:17;99588.38;;;7.33;81.85
10658;BME280;5377;43.276;26.930;2023-02-20T08:45:43;99595.84;;;7.38;83.13
10658;BME280;5377;43.276;26.930;2023-02-20T08:48:10;99613.31;;;7.40;82.76
10658;BME280;5377;43.276;26.930;2023-02-20T08:50:37;99608.28;;;7.54;83.54
10658;BME280;5377;43.276;26.930;2023-02-20T08:53:04;99607.97;;;7.48;82.09
10658;BME280;5377;43.276;26.930;2023-02-20T08:55:32;99613.94;;;7.50;83.12
10658;BME280;5377;43.276;26.930;2023-02-20T08:57:59;99624.63;;;7.50;81.07
10658;BME280;5377;43.276;26.930;2023-02-20T09:00:26;99635.06;;;7.60;81.23
10658;BME280;5377;43.276;26.930;2023-02-20T09:02:52;99642.63;;;7.48;80.06
10658;BME280;5377;43.276;26.930;2023-02-20T09:05:19;99645.97;;;7.34;81.28
10658;BME280;5377;43.276;26.930;2023-02-20T09:07:46;99645.63;;;7.45;81.41
10658;BME280;5377;43.276;26.930;2023-02-20T09:10:13;99651.44;;;7.49;81.62
10658;BME280;5377;43.276;26.930;2023-02-20T09:12:41;99649.94;;;7.46;81.84
10658;BME280;5377;43.276;26.930;2023-02-20T09:15:08;99644.63;;;7.46;81.98
10658;BME280;5377;43.276;26.930;2023-02-20T09:17:36;99647.97;;;7.40;82.50
10658;BME280;5377;43.276;26.930;2023-02-20T09:20:03;99642.66;;;7.32;81.39
10658;BME280;5377;43.276;26.930;2023-02-20T09:22:34;99663.78;;;7.26;82.72
10658;BME280;5377;43.276;26.930;2023-02-20T09:25:01;99669.47;;;7.23;83.77
10658;BME280;5377;43.276;26.930;2023-02-20T09:27:27;99670.63;;;7.36;83.93
10658;BME280;5377;43.276;26.930;2023-02-20T09:29:56;99679.97;;;7.16;84.05
10658;BME280;5377;43.276;26.930;2023-02-20T09:32:23;99678.47;;;7.13;84.86
10658;BME280;5377;43.276;26.930;2023-02-20T09:34:50;99682.47;;;7.09;85.39
10658;BME280;5377;43.276;26.930;2023-02-20T09:37:17;99685.94;;;6.94;87.76
10658;BME280;5377;43.276;26.930;2023-02-20T09:39:44;99687.97;;;7.08;88.94
10658;BME280;5377;43.276;26.930;2023-02-20T09:42:21;99684.47;;;7.07;89.18
10658;BME280;5377;43.276;26.930;2023-02-20T09:45:00;99679.97;;;7.00;89.18
10658;BME280;5377;43.276;26.930;2023-02-20T09:47:37;99682.47;;;7.09;90.17
10658;BME280;5377;43.276;26.930;2023-02-20T09:50:12;99683.13;;;6.95;90.91
10658;BME280;5377;43.276;26.930;2023-02-20T09:52:42;99671.81;;;7.01;91.27
10658;BME280;5377;43.276;26.930;2023-02-20T09:55:11;99669.81;;;7.11;91.05
10658;BME280;5377;43.276;26.930;2023-02-20T09:57:44;99676.47;;;7.07;91.17
10658;BME280;5377;43.276;26.930;2023-02-20T10:00:20;99674.13;;;7.12;90.64
10658;BME280;5377;43.276;26.930;2023-02-20T10:02:54;99674.13;;;7.12;89.14
10658;BME280;5377;43.276;26.930;2023-02-20T10:05:25;99685.78;;;7.11;89.36
10658;BME280;5377;43.276;26.930;2023-02-20T10:07:54;99681.13;;;7.05;89.16
10658;BME280;5377;43.276;26.930;2023-02-20T10:10:22;99671.66;;;6.95;89.95
10658;BME280;5377;43.276;26.930;2023-02-20T10:12:57;99665.97;;;7.06;88.95
10658;BME280;5377;43.276;26.930;2023-02-20T10:15:34;99665.00;;;6.99;89.60
10658;BME280;5377;43.276;26.930;2023-02-20T10:18:15;99662.63;;;7.20;89.07
10658;BME280;5377;43.276;26.930;2023-02-20T10:20:51;99655.13;;;7.40;87.69
10658;BME280;5377;43.276;26.930;2023-02-20T10:23:26;99648.91;;;7.56;87.00
10658;BME280;5377;43.276;26.930;2023-02-20T10:25:59;99655.34;;;7.86;85.91
10658;BME280;5377;43.276;26.930;2023-02-20T10:28:30;99642.28;;;8.30;84.64
10658;BME280;5377;43.276;26.930;2023-02-20T10:31:05;99636.06;;;8.46;78.13
10658;BME280;5377;43.276;26.930;2023-02-20T10:33:37;99633.94;;;8.41;74.46
10658;BME280;5377;43.276;26.930;2023-02-20T10:36:11;99648.06;;;8.50;74.11
10658;BME280;5377;43.276;26.930;2023-02-20T10:38:44;99642.59;;;8.43;74.45
10658;BME280;5377;43.276;26.930;2023-02-20T10:41:17;99656.72;;;8.12;72.99
10658;BME280;5377;43.276;26.930;2023-02-20T10:43:49;99630.56;;;8.08;74.23
10658;BME280;5377;43.276;26.930;2023-02-20T10:46:25;99652.78;;;8.39;72.55
10658;BME280;5377;43.276;26.930;2023-02-20T10:48:57;99653.56;;;8.09;72.24
10658;BME280;5377;43.276;26.930;2023-02-20T10:51:28;99645.75;;;8.07;73.62
10658;BME280;5377;43.276;26.930;2023-02-20T10:54:02;99647.44;;;8.31;72.54
10658;BME280;5377;43.276;26.930;2023-02-20T10:56:33;99638.31;;;8.26;71.65
10658;BME280;5377;43.276;26.930;2023-02-20T10:59:08;99640.41;;;8.47;71.27
10658;BME280;5377;43.276;26.930;2023-02-20T11:01:38;99637.91;;;8.45;71.33
10658;BME280;5377;43.276;26.930;2023-02-20T11:04:11;99647.50;;;8.54;69.74
10658;BME280;5377;43.276;26.930;2023-02-20T11:06:44;99651.97;;;8.62;69.73
10658;BME280;5377;43.276;26.930;2023-02-20T11:09:11;99659.97;;;8.31;69.93
10658;BME280;5377;43.276;26.930;2023-02-20T11:11:39;99655.41;;;8.48;69.67
10658;BME280;5377;43.276;26.930;2023-02-20T11:14:12;99642.00;;;8.56;69.67
10658;BME280;5377;43.276;26.930;2023-02-20T11:16:44;99656.63;;;8.68;69.14
10658;BME280;5377;43.276;26.930;2023-02-20T11:19:16;99653.06;;;8.75;68.70
10658;BME280;5377;43.276;26.930;2023-02-20T11:21:47;99647.06;;;8.73;67.56
10658;BME280;5377;43.276;26.930;2023-02-20T11:24:33;99652.88;;;8.77;66.58
10658;BME280;5377;43.276;26.930;2023-02-20T11:27:03;99646.03;;;8.97;66.60
10658;BME280;5377;43.276;26.930;2023-02-20T11:29:39;99644.72;;;8.93;66.00
10658;BME280;5377;43.276;26.930;2023-02-20T11:32:21;99641.00;;;8.80;66.19
10658;BME280;5377;43.276;26.930;2023-02-20T11:38:22;99636.47;;;9.41;65.21
10658;BME280;5377;43.276;26.930;2023-02-20T11:41:06;99637.28;;;9.70;63.82
10658;BME280;5377;43.276;26.930;2023-02-20T11:43:35;99652.06;;;9.52;63.50
10658;BME280;5377;43.276;26.930;2023-02-20T11:46:08;99642.47;;;9.43;63.04
10658;BME280;5377;43.276;26.930;2023-02-20T11:48:36;99630.16;;;9.33;63.72
10658;BME280;5377;43.276;26.930;2023-02-20T11:51:03;99620.78;;;9.67;63.92
10658;BME280;5377;43.276;26.930;2023-02-20T11:53:32;99617.56;;;9.86;61.54
10658;BME280;5377;43.276;26.930;2023-02-20T11:56:08;99619.69;;;9.76;61.54
10658;BME280;5377;43.276;26.930;2023-02-20T11:58:36;99621.63;;;9.00;62.93
10658;BME280;5377;43.276;26.930;2023-02-20T12:01:03;99631.78;;;9.05;63.97
10658;BME280;5377;43.276;26.930;2023-02-20T12:03:32;99638.81;;;8.83;64.17
10658;BME280;5377;43.276;26.930;2023-02-20T12:06:26;99650.53;;;8.97;63.95
10658;BME280;5377;43.276;26.930;2023-02-20T12:08:51;99643.25;;;8.91;64.10
10658;BME280;5377;43.276;26.930;2023-02-20T12:11:21;99641.28;;;9.07;63.90
10658;BME280;5377;43.276;26.930;2023-02-20T12:13:51;99642.31;;;8.84;64.69
10658;BME280;5377;43.276;26.930;2023-02-20T12:16:39;99639.84;;;8.97;64.93
10658;BME280;5377;43.276;26.930;2023-02-20T12:19:13;99634.66;;;9.03;63.88
10658;BME280;5377;43.276;26.930;2023-02-20T12:21:57;99629.13;;;9.05;63.51
10658;BME280;5377;43.276;26.930;2023-02-20T12:24:53;99634.13;;;9.23;63.52
10658;BME280;5377;43.276;26.930;2023-02-20T12:27:45;99636.00;;;9.37;62.20
10658;BME280;5377;43.276;26.930;2023-02-20T12:30:24;99629.28;;;9.56;61.70
10658;BME280;5377;43.276;26.930;2023-02-20T12:32:58;99620.41;;;9.70;63.17
10658;BME280;5377;43.276;26.930;2023-02-20T12:35:30;99627.06;;;9.89;60.58
10658;BME280;5377;43.276;26.930;2023-02-20T12:41:08;99618.25;;;10.82;60.68
10658;BME280;5377;43.276;26.930;2023-02-20T12:43:45;99613.09;;;11.36;57.08
10658;BME280;5377;43.276;26.930;2023-02-20T12:46:17;99615.13;;;11.62;56.27
10658;BME280;5377;43.276;26.930;2023-02-20T12:49:06;99594.59;;;12.24;55.63
10658;BME280;5377;43.276;26.930;2023-02-20T12:51:47;99597.00;;;12.99;53.82
10658;BME280;5377;43.276;26.930;2023-02-20T12:54:29;99597.66;;;13.21;52.60
10658;BME280;5377;43.276;26.930;2023-02-20T12:57:09;99594.69;;;13.49;52.50
10658;BME280;5377;43.276;26.930;2023-02-20T12:59:49;99588.31;;;14.08;51.00
10658;BME280;5377;43.276;26.930;2023-02-20T13:02:29;99596.22;;;14.48;49.80
10658;BME280;5377;43.276;26.930;2023-02-20T13:05:00;99569.75;;;15.81;46.86
10658;BME280;5377;43.276;26.930;2023-02-20T13:07:32;99566.66;;;16.86;43.92
10658;BME280;5377;43.276;26.930;2023-02-20T13:10:06;99558.13;;;17.35;42.27
10658;BME280;5377;43.276;26.930;2023-02-20T13:12:35;99540.91;;;17.76;38.89
10658;BME280;5377;43.276;26.930;2023-02-20T13:15:11;99548.59;;;18.53;39.58
10658;BME280;5377;43.276;26.930;2023-02-20T13:17:46;99542.44;;;18.41;37.64
10658;BME280;5377;43.276;26.930;2023-02-20T13:20:19;99526.91;;;19.54;37.10
10658;BME280;5377;43.276;26.930;2023-02-20T13:22:58;99512.78;;;19.18;34.87
10658;BME280;5377;43.276;26.930;2023-02-20T13:25:40;99538.47;;;18.94;36.53
10658;BME280;5377;43.276;26.930;2023-02-20T13:31:15;99535.06;;;18.53;37.54
10658;BME280;5377;43.276;26.930;2023-02-20T13:33:44;99535.72;;;18.03;36.48
10658;BME280;5377;43.276;26.930;2023-02-20T13:36:16;99532.09;;;18.26;37.22
10658;BME280;5377;43.276;26.930;2023-02-20T13:41:59;99539.16;;;17.24;38.22
10658;BME280;5377;43.276;26.930;2023-02-20T13:44:39;99546.28;;;17.65;38.46
10658;BME280;5377;43.276;26.930;2023-02-20T13:47:34;99545.88;;;17.21;39.56